sensor_id;sensor_type;location;lat;lon;timestamp;P1;durP1;ratioP1;P2;durP2;ratioP2
56343;SDS011;42245;42.058;24.700;2024-02-21T04:29:32;28.90;;;18.30;;
56343;SDS011;42245;42.058;24.700;2024-02-21T04:31:59;31.17;;;18.47;;
56343;SDS011;42245;42.058;24.700;2024-02-21T04:34:24;30.20;;;18.27;;
56343;SDS011;42245;42.058;24.700;2024-02-21T04:36:50;32.27;;;19.27;;
56343;SDS011;42245;42.058;24.700;2024-02-21T04:39:15;31.23;;;18.43;;
56343;SDS011;42245;42.058;24.700;2024-02-21T04:41:40;31.40;;;18.63;;
56343;SDS011;42245;42.058;24.700;2024-02-21T04:44:06;30.90;;;18.57;;
56343;SDS011;42245;42.058;24.700;2024-02-21T04:46:31;30.33;;;18.47;;
56343;SDS011;42245;42.058;24.700;2024-02-21T04:48:56;31.03;;;18.70;;
56343;SDS011;42245;42.058;24.700;2024-02-21T04:51:22;33.43;;;19.27;;
56343;SDS011;42245;42.058;24.700;2024-02-21T04:53:48;28.97;;;18.17;;
56343;SDS011;42245;42.058;24.700;2024-02-21T04:56:13;29.27;;;19.10;;
56343;SDS011;42245;42.058;24.700;2024-02-21T04:58:39;32.00;;;18.93;;
56343;SDS011;42245;42.058;24.700;2024-02-21T05:01:04;28.97;;;17.67;;
56343;SDS011;42245;42.058;24.700;2024-02-21T05:03:30;29.17;;;18.17;;
56343;SDS011;42245;42.058;24.700;2024-02-21T05:05:55;28.37;;;18.37;;
56343;SDS011;42245;42.058;24.700;2024-02-21T05:08:21;36.70;;;19.63;;
56343;SDS011;42245;42.058;24.700;2024-02-21T05:10:46;33.03;;;19.77;;
56343;SDS011;42245;42.058;24.700;2024-02-21T05:13:11;31.75;;;18.67;;
56343;SDS011;42245;42.058;24.700;2024-02-21T05:15:37;31.47;;;18.73;;
56343;SDS011;42245;42.058;24.700;2024-02-21T05:18:02;34.87;;;19.47;;
56343;SDS011;42245;42.058;24.700;2024-02-21T05:20:28;29.70;;;18.23;;
56343;SDS011;42245;42.058;24.700;2024-02-21T05:22:53;30.30;;;18.70;;
56343;SDS011;42245;42.058;24.700;2024-02-21T05:25:19;27.73;;;18.93;;
56343;SDS011;42245;42.058;24.700;2024-02-21T05:27:44;31.73;;;18.83;;
56343;SDS011;42245;42.058;24.700;2024-02-21T05:30:11;31.83;;;19.33;;
56343;SDS011;42245;42.058;24.700;2024-02-21T05:32:37;33.50;;;19.90;;
56343;SDS011;42245;42.058;24.700;2024-02-21T05:35:02;31.37;;;19.93;;
56343;SDS011;42245;42.058;24.700;2024-02-21T05:37:27;32.90;;;20.50;;
56343;SDS011;42245;42.058;24.700;2024-02-21T05:39:53;32.50;;;19.93;;
56343;SDS011;42245;42.058;24.700;2024-02-21T05:42:18;30.40;;;19.07;;
56343;SDS011;42245;42.058;24.700;2024-02-21T05:44:44;29.83;;;18.67;;
56343;SDS011;42245;42.058;24.700;2024-02-21T05:47:09;35.90;;;20.40;;
56343;SDS011;42245;42.058;24.700;2024-02-21T05:49:36;31.53;;;19.63;;
56343;SDS011;42245;42.058;24.700;2024-02-21T05:52:01;31.70;;;19.40;;
56343;SDS011;42245;42.058;24.700;2024-02-21T05:54:27;33.05;;;19.10;;
56343;SDS011;42245;42.058;24.700;2024-02-21T05:56:52;31.08;;;19.63;;
56343;SDS011;42245;42.058;24.700;2024-02-21T05:59:18;31.03;;;18.83;;
56343;SDS011;42245;42.058;24.700;2024-02-21T06:01:43;31.30;;;19.07;;
56343;SDS011;42245;42.058;24.700;2024-02-21T06:04:09;28.90;;;18.80;;
56343;SDS011;42245;42.058;24.700;2024-02-21T06:06:34;32.77;;;18.77;;
56343;SDS011;42245;42.058;24.700;2024-02-21T06:09:00;31.13;;;18.33;;
56343;SDS011;42245;42.058;24.700;2024-02-21T06:11:27;32.83;;;19.23;;
56343;SDS011;42245;42.058;24.700;2024-02-21T06:13:52;31.33;;;19.00;;
56343;SDS011;42245;42.058;24.700;2024-02-21T06:16:18;29.40;;;18.90;;
56343;SDS011;42245;42.058;24.700;2024-02-21T06:18:43;27.03;;;17.17;;
56343;SDS011;42245;42.058;24.700;2024-02-21T06:21:08;23.33;;;14.60;;
56343;SDS011;42245;42.058;24.700;2024-02-21T06:23:34;18.43;;;11.80;;
56343;SDS011;42245;42.058;24.700;2024-02-21T06:26:02;22.23;;;13.87;;
56343;SDS011;42245;42.058;24.700;2024-02-21T06:28:27;21.10;;;14.17;;
56343;SDS011;42245;42.058;24.700;2024-02-21T06:30:52;25.30;;;16.33;;
56343;SDS011;42245;42.058;24.700;2024-02-21T06:33:18;28.43;;;16.40;;
56343;SDS011;42245;42.058;24.700;2024-02-21T06:35:47;29.87;;;15.90;;
56343;SDS011;42245;42.058;24.700;2024-02-21T06:38:13;23.40;;;15.43;;
56343;SDS011;42245;42.058;24.700;2024-02-21T06:40:38;24.42;;;15.27;;
56343;SDS011;42245;42.058;24.700;2024-02-21T06:43:05;25.17;;;15.33;;
56343;SDS011;42245;42.058;24.700;2024-02-21T06:45:30;20.90;;;14.07;;
56343;SDS011;42245;42.058;24.700;2024-02-21T06:47:56;24.60;;;14.40;;
56343;SDS011;42245;42.058;24.700;2024-02-21T06:50:21;25.03;;;14.93;;
56343;SDS011;42245;42.058;24.700;2024-02-21T06:52:47;24.13;;;15.10;;
56343;SDS011;42245;42.058;24.700;2024-02-21T06:55:12;23.23;;;15.23;;
56343;SDS011;42245;42.058;24.700;2024-02-21T06:57:38;22.97;;;14.80;;
56343;SDS011;42245;42.058;24.700;2024-02-21T07:00:03;22.70;;;14.53;;
56343;SDS011;42245;42.058;24.700;2024-02-21T07:02:33;23.17;;;15.00;;
56343;SDS011;42245;42.058;24.700;2024-02-21T07:04:58;24.10;;;14.37;;
56343;SDS011;42245;42.058;24.700;2024-02-21T07:07:24;21.88;;;14.75;;
56343;SDS011;42245;42.058;24.700;2024-02-21T07:09:49;22.80;;;14.50;;
56343;SDS011;42245;42.058;24.700;2024-02-21T07:12:14;22.70;;;13.65;;
56343;SDS011;42245;42.058;24.700;2024-02-21T07:14:40;19.57;;;14.13;;
56343;SDS011;42245;42.058;24.700;2024-02-21T07:17:05;21.23;;;14.40;;
56343;SDS011;42245;42.058;24.700;2024-02-21T07:19:30;20.40;;;13.55;;
56343;SDS011;42245;42.058;24.700;2024-02-21T07:21:56;18.38;;;12.27;;
56343;SDS011;42245;42.058;24.700;2024-02-21T07:24:21;17.40;;;12.30;;
56343;SDS011;42245;42.058;24.700;2024-02-21T07:26:47;16.42;;;12.20;;
56343;SDS011;42245;42.058;24.700;2024-02-21T07:29:12;14.80;;;10.57;;
56343;SDS011;42245;42.058;24.700;2024-02-21T07:31:38;15.90;;;10.70;;
56343;SDS011;42245;42.058;24.700;2024-02-21T07:34:07;11.00;;;8.40;;
56343;SDS011;42245;42.058;24.700;2024-02-21T07:36:33;13.27;;;9.23;;
56343;SDS011;42245;42.058;24.700;2024-02-21T07:38:58;12.55;;;8.52;;
56343;SDS011;42245;42.058;24.700;2024-02-21T07:41:24;10.55;;;8.07;;
56343;SDS011;42245;42.058;24.700;2024-02-21T07:43:50;9.57;;;7.22;;
56343;SDS011;42245;42.058;24.700;2024-02-21T07:46:16;12.15;;;8.10;;
56343;SDS011;42245;42.058;24.700;2024-02-21T07:48:42;9.57;;;7.85;;
56343;SDS011;42245;42.058;24.700;2024-02-21T07:51:07;8.35;;;6.88;;
56343;SDS011;42245;42.058;24.700;2024-02-21T07:53:33;7.93;;;6.65;;
56343;SDS011;42245;42.058;24.700;2024-02-21T07:55:58;8.73;;;7.13;;
56343;SDS011;42245;42.058;24.700;2024-02-21T07:58:23;10.32;;;7.25;;
56343;SDS011;42245;42.058;24.700;2024-02-21T08:00:49;10.90;;;8.45;;
56343;SDS011;42245;42.058;24.700;2024-02-21T08:03:14;10.00;;;7.97;;
56343;SDS011;42245;42.058;24.700;2024-02-21T08:05:42;11.40;;;7.20;;
56343;SDS011;42245;42.058;24.700;2024-02-21T08:08:08;8.68;;;6.90;;
56343;SDS011;42245;42.058;24.700;2024-02-21T08:10:33;9.07;;;6.53;;
56343;SDS011;42245;42.058;24.700;2024-02-21T08:12:59;7.75;;;6.53;;
56343;SDS011;42245;42.058;24.700;2024-02-21T08:15:24;9.32;;;7.55;;
56343;SDS011;42245;42.058;24.700;2024-02-21T08:17:55;10.02;;;7.43;;
56343;SDS011;42245;42.058;24.700;2024-02-21T08:20:24;8.02;;;6.40;;
56343;SDS011;42245;42.058;24.700;2024-02-21T08:22:50;8.82;;;7.22;;
56343;SDS011;42245;42.058;24.700;2024-02-21T08:25:15;9.68;;;6.80;;
56343;SDS011;42245;42.058;24.700;2024-02-21T08:27:40;8.73;;;6.55;;
56343;SDS011;42245;42.058;24.700;2024-02-21T08:30:06;8.68;;;7.05;;
56343;SDS011;42245;42.058;24.700;2024-02-21T08:32:32;8.10;;;6.95;;
56343;SDS011;42245;42.058;24.700;2024-02-21T08:35:00;9.85;;;6.70;;
56343;SDS011;42245;42.058;24.700;2024-02-21T08:37:26;8.80;;;6.40;;
56343;SDS011;42245;42.058;24.700;2024-02-21T08:39:52;7.82;;;6.95;;
56343;SDS011;42245;42.058;24.700;2024-02-21T08:42:18;7.80;;;6.47;;
56343;SDS011;42245;42.058;24.700;2024-02-21T08:44:43;7.00;;;6.28;;
56343;SDS011;42245;42.058;24.700;2024-02-21T08:47:09;6.90;;;6.20;;
56343;SDS011;42245;42.058;24.700;2024-02-21T08:49:35;8.75;;;6.95;;
56343;SDS011;42245;42.058;24.700;2024-02-21T08:52:01;7.55;;;6.72;;
56343;SDS011;42245;42.058;24.700;2024-02-21T08:54:27;9.45;;;7.13;;
56343;SDS011;42245;42.058;24.700;2024-02-21T08:56:53;7.68;;;6.53;;
56343;SDS011;42245;42.058;24.700;2024-02-21T08:59:19;8.30;;;6.97;;
56343;SDS011;42245;42.058;24.700;2024-02-21T09:01:47;8.20;;;6.80;;
56343;SDS011;42245;42.058;24.700;2024-02-21T09:04:13;9.02;;;7.32;;
56343;SDS011;42245;42.058;24.700;2024-02-21T09:06:38;8.90;;;7.30;;
56343;SDS011;42245;42.058;24.700;2024-02-21T09:09:07;10.20;;;8.23;;
56343;SDS011;42245;42.058;24.700;2024-02-21T09:11:35;10.60;;;8.27;;
56343;SDS011;42245;42.058;24.700;2024-02-21T09:14:01;9.85;;;7.93;;
56343;SDS011;42245;42.058;24.700;2024-02-21T09:16:28;12.40;;;8.27;;
56343;SDS011;42245;42.058;24.700;2024-02-21T09:18:55;9.25;;;7.20;;
56343;SDS011;42245;42.058;24.700;2024-02-21T09:21:22;9.75;;;7.97;;
56343;SDS011;42245;42.058;24.700;2024-02-21T09:23:47;10.07;;;8.52;;
56343;SDS011;42245;42.058;24.700;2024-02-21T09:26:13;11.23;;;9.02;;
56343;SDS011;42245;42.058;24.700;2024-02-21T09:28:41;11.10;;;8.60;;
56343;SDS011;42245;42.058;24.700;2024-02-21T09:31:07;11.00;;;7.85;;
56343;SDS011;42245;42.058;24.700;2024-02-21T09:33:32;11.68;;;8.55;;
56343;SDS011;42245;42.058;24.700;2024-02-21T09:35:57;11.15;;;8.45;;
56343;SDS011;42245;42.058;24.700;2024-02-21T09:38:23;12.02;;;9.10;;
56343;SDS011;42245;42.058;24.700;2024-02-21T09:40:54;10.18;;;7.85;;
56343;SDS011;42245;42.058;24.700;2024-02-21T09:43:24;11.23;;;8.15;;
56343;SDS011;42245;42.058;24.700;2024-02-21T09:45:50;10.23;;;7.68;;
56343;SDS011;42245;42.058;24.700;2024-02-21T09:51:11;9.93;;;7.68;;
56343;SDS011;42245;42.058;24.700;2024-02-21T09:53:38;10.25;;;8.07;;
56343;SDS011;42245;42.058;24.700;2024-02-21T09:56:05;10.90;;;8.57;;
56343;SDS011;42245;42.058;24.700;2024-02-21T09:58:32;6.97;;;5.43;;
56343;SDS011;42245;42.058;24.700;2024-02-21T10:00:59;7.45;;;5.97;;
56343;SDS011;42245;42.058;24.700;2024-02-21T10:03:25;6.97;;;5.50;;
56343;SDS011;42245;42.058;24.700;2024-02-21T10:05:50;5.82;;;4.63;;
56343;SDS011;42245;42.058;24.700;2024-02-21T10:08:16;6.03;;;5.15;;
56343;SDS011;42245;42.058;24.700;2024-02-21T10:10:42;7.90;;;5.50;;
56343;SDS011;42245;42.058;24.700;2024-02-21T10:13:09;7.65;;;5.95;;
56343;SDS011;42245;42.058;24.700;2024-02-21T10:15:35;8.35;;;6.57;;
56343;SDS011;42245;42.058;24.700;2024-02-21T10:18:01;8.07;;;6.13;;
56343;SDS011;42245;42.058;24.700;2024-02-21T10:20:28;8.35;;;6.30;;
56343;SDS011;42245;42.058;24.700;2024-02-21T10:23:04;9.25;;;5.88;;
56343;SDS011;42245;42.058;24.700;2024-02-21T10:25:35;6.82;;;5.80;;
56343;SDS011;42245;42.058;24.700;2024-02-21T10:28:06;7.07;;;5.70;;
56343;SDS011;42245;42.058;24.700;2024-02-21T10:30:32;8.48;;;6.38;;
56343;SDS011;42245;42.058;24.700;2024-02-21T10:32:57;9.68;;;6.80;;
56343;SDS011;42245;42.058;24.700;2024-02-21T10:35:27;9.93;;;7.30;;
56343;SDS011;42245;42.058;24.700;2024-02-21T10:37:56;8.48;;;6.72;;
56343;SDS011;42245;42.058;24.700;2024-02-21T10:40:23;7.10;;;5.80;;
56343;SDS011;42245;42.058;24.700;2024-02-21T10:42:50;7.05;;;5.70;;
56343;SDS011;42245;42.058;24.700;2024-02-21T10:45:19;7.75;;;6.00;;
56343;SDS011;42245;42.058;24.700;2024-02-21T10:47:45;6.50;;;5.68;;
56343;SDS011;42245;42.058;24.700;2024-02-21T10:50:13;6.50;;;5.53;;
56343;SDS011;42245;42.058;24.700;2024-02-21T10:53:00;7.90;;;6.15;;
56343;SDS011;42245;42.058;24.700;2024-02-21T10:55:51;7.38;;;5.93;;
56343;SDS011;42245;42.058;24.700;2024-02-21T10:58:22;6.82;;;5.45;;
56343;SDS011;42245;42.058;24.700;2024-02-21T11:00:48;6.97;;;5.25;;
56343;SDS011;42245;42.058;24.700;2024-02-21T11:03:14;6.00;;;5.20;;
56343;SDS011;42245;42.058;24.700;2024-02-21T11:05:39;5.68;;;4.50;;
56343;SDS011;42245;42.058;24.700;2024-02-21T11:08:06;6.53;;;5.05;;
56343;SDS011;42245;42.058;24.700;2024-02-21T11:10:32;6.03;;;4.80;;
56343;SDS011;42245;42.058;24.700;2024-02-21T11:13:09;7.60;;;5.13;;
56343;SDS011;42245;42.058;24.700;2024-02-21T11:15:35;7.88;;;5.40;;
56343;SDS011;42245;42.058;24.700;2024-02-21T11:18:01;7.57;;;5.78;;
56343;SDS011;42245;42.058;24.700;2024-02-21T11:20:36;6.03;;;5.43;;
56343;SDS011;42245;42.058;24.700;2024-02-21T11:23:02;6.93;;;5.70;;
56343;SDS011;42245;42.058;24.700;2024-02-21T11:25:28;8.10;;;5.82;;
56343;SDS011;42245;42.058;24.700;2024-02-21T11:28:00;6.63;;;5.50;;
56343;SDS011;42245;42.058;24.700;2024-02-21T11:30:35;7.05;;;5.57;;
56343;SDS011;42245;42.058;24.700;2024-02-21T11:33:01;7.28;;;5.80;;
56343;SDS011;42245;42.058;24.700;2024-02-21T11:35:30;7.25;;;5.90;;
56343;SDS011;42245;42.058;24.700;2024-02-21T11:38:07;6.95;;;5.72;;
56343;SDS011;42245;42.058;24.700;2024-02-21T11:40:38;6.93;;;6.00;;
56343;SDS011;42245;42.058;24.700;2024-02-21T11:43:04;7.20;;;5.90;;
56343;SDS011;42245;42.058;24.700;2024-02-21T11:45:30;6.45;;;5.53;;
56343;SDS011;42245;42.058;24.700;2024-02-21T11:47:57;6.75;;;5.85;;
56343;SDS011;42245;42.058;24.700;2024-02-21T11:50:25;8.55;;;6.28;;
56343;SDS011;42245;42.058;24.700;2024-02-21T11:52:51;6.45;;;5.57;;
56343;SDS011;42245;42.058;24.700;2024-02-21T11:55:16;6.40;;;5.18;;
56343;SDS011;42245;42.058;24.700;2024-02-21T11:57:41;6.65;;;5.75;;
56343;SDS011;42245;42.058;24.700;2024-02-21T12:00:14;6.75;;;5.20;;
56343;SDS011;42245;42.058;24.700;2024-02-21T12:02:41;5.20;;;4.45;;
56343;SDS011;42245;42.058;24.700;2024-02-21T12:05:06;6.30;;;5.13;;
56343;SDS011;42245;42.058;24.700;2024-02-21T12:07:32;6.18;;;4.85;;
56343;SDS011;42245;42.058;24.700;2024-02-21T12:10:00;6.07;;;4.63;;
56343;SDS011;42245;42.058;24.700;2024-02-21T12:12:26;8.30;;;5.13;;
56343;SDS011;42245;42.058;24.700;2024-02-21T12:14:55;7.45;;;5.55;;
56343;SDS011;42245;42.058;24.700;2024-02-21T12:17:23;5.10;;;4.45;;
56343;SDS011;42245;42.058;24.700;2024-02-21T12:19:49;6.38;;;5.30;;
56343;SDS011;42245;42.058;24.700;2024-02-21T12:22:18;7.90;;;5.82;;
56343;SDS011;42245;42.058;24.700;2024-02-21T12:24:44;8.00;;;6.10;;
56343;SDS011;42245;42.058;24.700;2024-02-21T12:27:12;9.40;;;6.22;;
56343;SDS011;42245;42.058;24.700;2024-02-21T12:29:38;8.52;;;5.63;;
56343;SDS011;42245;42.058;24.700;2024-02-21T12:32:03;6.53;;;5.63;;
56343;SDS011;42245;42.058;24.700;2024-02-21T12:34:29;9.65;;;5.60;;
56343;SDS011;42245;42.058;24.700;2024-02-21T12:36:57;7.07;;;5.35;;
56343;SDS011;42245;42.058;24.700;2024-02-21T12:39:23;6.35;;;5.35;;
56343;SDS011;42245;42.058;24.700;2024-02-21T12:41:48;7.25;;;5.35;;
56343;SDS011;42245;42.058;24.700;2024-02-21T12:44:13;10.40;;;6.40;;
56343;SDS011;42245;42.058;24.700;2024-02-21T12:46:39;8.88;;;5.68;;
56343;SDS011;42245;42.058;24.700;2024-02-21T12:49:05;6.53;;;5.20;;
56343;SDS011;42245;42.058;24.700;2024-02-21T12:51:31;7.95;;;5.65;;
56343;SDS011;42245;42.058;24.700;2024-02-21T12:53:56;8.90;;;6.32;;
56343;SDS011;42245;42.058;24.700;2024-02-21T12:56:22;6.28;;;5.03;;
56343;SDS011;42245;42.058;24.700;2024-02-21T12:58:49;6.95;;;5.13;;
56343;SDS011;42245;42.058;24.700;2024-02-21T13:01:15;6.55;;;5.30;;
56343;SDS011;42245;42.058;24.700;2024-02-21T13:03:41;6.75;;;5.35;;
56343;SDS011;42245;42.058;24.700;2024-02-21T13:06:06;7.53;;;4.82;;
56343;SDS011;42245;42.058;24.700;2024-02-21T13:08:36;5.95;;;4.57;;
56343;SDS011;42245;42.058;24.700;2024-02-21T13:11:01;7.55;;;4.30;;
56343;SDS011;42245;42.058;24.700;2024-02-21T13:13:27;5.70;;;3.95;;
56343;SDS011;42245;42.058;24.700;2024-02-21T13:15:52;5.32;;;3.80;;
56343;SDS011;42245;42.058;24.700;2024-02-21T13:18:18;3.50;;;3.08;;
56343;SDS011;42245;42.058;24.700;2024-02-21T13:20:44;4.75;;;3.40;;
56343;SDS011;42245;42.058;24.700;2024-02-21T13:23:10;4.93;;;3.63;;
56343;SDS011;42245;42.058;24.700;2024-02-21T13:25:35;3.13;;;2.83;;
56343;SDS011;42245;42.058;24.700;2024-02-21T13:28:01;4.38;;;3.13;;
56343;SDS011;42245;42.058;24.700;2024-02-21T13:30:28;3.88;;;3.22;;
56343;SDS011;42245;42.058;24.700;2024-02-21T13:32:53;6.28;;;3.17;;
56343;SDS011;42245;42.058;24.700;2024-02-21T13:35:19;4.88;;;3.00;;
56343;SDS011;42245;42.058;24.700;2024-02-21T13:37:45;4.25;;;3.30;;
56343;SDS011;42245;42.058;24.700;2024-02-21T13:40:11;4.13;;;3.30;;
56343;SDS011;42245;42.058;24.700;2024-02-21T13:42:36;6.32;;;3.33;;
56343;SDS011;42245;42.058;24.700;2024-02-21T13:45:03;5.22;;;3.58;;
56343;SDS011;42245;42.058;24.700;2024-02-21T13:47:30;3.80;;;3.40;;
56343;SDS011;42245;42.058;24.700;2024-02-21T13:49:56;4.72;;;3.40;;
56343;SDS011;42245;42.058;24.700;2024-02-21T13:52:22;5.80;;;3.40;;
56343;SDS011;42245;42.058;24.700;2024-02-21T13:54:47;7.78;;;3.60;;
56343;SDS011;42245;42.058;24.700;2024-02-21T13:57:13;5.13;;;4.13;;
56343;SDS011;42245;42.058;24.700;2024-02-21T13:59:39;8.75;;;3.85;;
56343;SDS011;42245;42.058;24.700;2024-02-21T14:02:05;11.65;;;6.95;;
56343;SDS011;42245;42.058;24.700;2024-02-21T14:04:35;12.52;;;8.23;;
56343;SDS011;42245;42.058;24.700;2024-02-21T14:07:01;5.38;;;3.88;;
56343;SDS011;42245;42.058;24.700;2024-02-21T14:09:26;6.00;;;4.55;;
56343;SDS011;42245;42.058;24.700;2024-02-21T14:11:54;5.47;;;4.47;;
56343;SDS011;42245;42.058;24.700;2024-02-21T14:14:20;8.95;;;7.20;;
56343;SDS011;42245;42.058;24.700;2024-02-21T14:16:45;5.95;;;4.70;;
56343;SDS011;42245;42.058;24.700;2024-02-21T14:19:13;11.52;;;8.20;;
56343;SDS011;42245;42.058;24.700;2024-02-21T14:21:40;12.60;;;9.68;;
56343;SDS011;42245;42.058;24.700;2024-02-21T14:24:06;7.68;;;4.40;;
56343;SDS011;42245;42.058;24.700;2024-02-21T14:26:32;5.65;;;4.55;;
56343;SDS011;42245;42.058;24.700;2024-02-21T14:28:58;11.40;;;7.82;;
56343;SDS011;42245;42.058;24.700;2024-02-21T14:31:24;8.43;;;4.28;;
56343;SDS011;42245;42.058;24.700;2024-02-21T14:33:52;7.72;;;3.80;;
56343;SDS011;42245;42.058;24.700;2024-02-21T14:36:18;5.07;;;4.00;;
56343;SDS011;42245;42.058;24.700;2024-02-21T14:38:43;6.38;;;3.80;;
56343;SDS011;42245;42.058;24.700;2024-02-21T14:41:09;5.20;;;3.70;;
56343;SDS011;42245;42.058;24.700;2024-02-21T14:43:38;6.50;;;4.55;;
56343;SDS011;42245;42.058;24.700;2024-02-21T14:46:04;11.82;;;7.78;;
56343;SDS011;42245;42.058;24.700;2024-02-21T14:48:31;23.05;;;9.50;;
56343;SDS011;42245;42.058;24.700;2024-02-21T14:50:57;5.90;;;4.00;;
56343;SDS011;42245;42.058;24.700;2024-02-21T14:53:25;6.35;;;4.22;;
56343;SDS011;42245;42.058;24.700;2024-02-21T14:55:51;13.25;;;9.95;;
56343;SDS011;42245;42.058;24.700;2024-02-21T14:58:16;7.82;;;6.18;;
56343;SDS011;42245;42.058;24.700;2024-02-21T15:00:44;4.95;;;4.00;;
56343;SDS011;42245;42.058;24.700;2024-02-21T15:03:09;5.32;;;4.18;;
56343;SDS011;42245;42.058;24.700;2024-02-21T15:05:41;5.35;;;3.95;;
56343;SDS011;42245;42.058;24.700;2024-02-21T15:08:07;7.07;;;4.57;;
56343;SDS011;42245;42.058;24.700;2024-02-21T15:10:35;6.38;;;4.05;;
56343;SDS011;42245;42.058;24.700;2024-02-21T15:13:01;6.90;;;3.90;;
56343;SDS011;42245;42.058;24.700;2024-02-21T15:15:28;15.45;;;6.70;;
56343;SDS011;42245;42.058;24.700;2024-02-21T15:17:53;5.35;;;4.15;;
56343;SDS011;42245;42.058;24.700;2024-02-21T15:20:19;5.53;;;4.00;;
56343;SDS011;42245;42.058;24.700;2024-02-21T15:22:44;8.32;;;4.03;;
56343;SDS011;42245;42.058;24.700;2024-02-21T15:25:09;5.07;;;3.95;;
56343;SDS011;42245;42.058;24.700;2024-02-21T15:27:40;5.85;;;4.22;;
56343;SDS011;42245;42.058;24.700;2024-02-21T15:30:08;4.63;;;3.63;;
56343;SDS011;42245;42.058;24.700;2024-02-21T15:32:34;4.75;;;3.88;;
56343;SDS011;42245;42.058;24.700;2024-02-21T15:34:59;6.95;;;3.60;;
56343;SDS011;42245;42.058;24.700;2024-02-21T15:37:25;5.30;;;3.70;;
56343;SDS011;42245;42.058;24.700;2024-02-21T15:39:51;4.40;;;3.63;;
56343;SDS011;42245;42.058;24.700;2024-02-21T15:42:17;7.15;;;3.38;;
56343;SDS011;42245;42.058;24.700;2024-02-21T15:44:42;9.35;;;3.72;;
56343;SDS011;42245;42.058;24.700;2024-02-21T15:47:08;6.45;;;3.47;;
56343;SDS011;42245;42.058;24.700;2024-02-21T15:49:33;4.97;;;3.55;;
56343;SDS011;42245;42.058;24.700;2024-02-21T15:51:58;5.20;;;3.70;;
56343;SDS011;42245;42.058;24.700;2024-02-21T15:54:24;7.70;;;3.80;;
56343;SDS011;42245;42.058;24.700;2024-02-21T15:56:52;6.60;;;3.75;;
56343;SDS011;42245;42.058;24.700;2024-02-21T15:59:21;4.38;;;3.80;;
56343;SDS011;42245;42.058;24.700;2024-02-21T16:01:47;6.25;;;4.03;;
56343;SDS011;42245;42.058;24.700;2024-02-21T16:04:12;4.13;;;3.50;;
56343;SDS011;42245;42.058;24.700;2024-02-21T16:06:40;6.68;;;4.13;;
56343;SDS011;42245;42.058;24.700;2024-02-21T16:09:05;5.95;;;3.90;;
56343;SDS011;42245;42.058;24.700;2024-02-21T16:11:32;4.80;;;3.85;;
56343;SDS011;42245;42.058;24.700;2024-02-21T16:13:58;5.47;;;4.15;;
56343;SDS011;42245;42.058;24.700;2024-02-21T16:16:26;6.40;;;4.47;;
56343;SDS011;42245;42.058;24.700;2024-02-21T16:18:51;6.18;;;4.00;;
56343;SDS011;42245;42.058;24.700;2024-02-21T16:21:17;6.80;;;4.03;;
56343;SDS011;42245;42.058;24.700;2024-02-21T16:23:43;5.22;;;4.40;;
56343;SDS011;42245;42.058;24.700;2024-02-21T16:26:08;7.00;;;4.22;;
56343;SDS011;42245;42.058;24.700;2024-02-21T16:28:33;7.30;;;4.20;;
56343;SDS011;42245;42.058;24.700;2024-02-21T16:30:59;5.13;;;4.07;;
56343;SDS011;42245;42.058;24.700;2024-02-21T16:33:25;6.95;;;4.10;;
56343;SDS011;42245;42.058;24.700;2024-02-21T16:35:50;7.45;;;4.40;;
56343;SDS011;42245;42.058;24.700;2024-02-21T16:38:16;7.32;;;4.57;;
56343;SDS011;42245;42.058;24.700;2024-02-21T16:40:42;6.18;;;4.18;;
56343;SDS011;42245;42.058;24.700;2024-02-21T16:43:08;6.28;;;4.03;;
56343;SDS011;42245;42.058;24.700;2024-02-21T16:45:33;6.28;;;4.40;;
56343;SDS011;42245;42.058;24.700;2024-02-21T16:48:00;7.85;;;4.38;;
56343;SDS011;42245;42.058;24.700;2024-02-21T16:50:26;6.20;;;4.28;;
56343;SDS011;42245;42.058;24.700;2024-02-21T16:52:51;8.63;;;4.60;;
56343;SDS011;42245;42.058;24.700;2024-02-21T16:55:18;6.53;;;4.20;;
56343;SDS011;42245;42.058;24.700;2024-02-21T16:57:43;5.60;;;4.55;;
56343;SDS011;42245;42.058;24.700;2024-02-21T17:00:09;10.82;;;5.18;;
56343;SDS011;42245;42.058;24.700;2024-02-21T17:02:41;6.80;;;4.10;;
56343;SDS011;42245;42.058;24.700;2024-02-21T17:05:07;7.65;;;4.50;;
56343;SDS011;42245;42.058;24.700;2024-02-21T17:07:36;9.63;;;5.15;;
56343;SDS011;42245;42.058;24.700;2024-02-21T17:10:01;10.63;;;4.78;;
56343;SDS011;42245;42.058;24.700;2024-02-21T17:12:30;8.32;;;5.70;;
56343;SDS011;42245;42.058;24.700;2024-02-21T17:14:57;7.63;;;5.10;;
56343;SDS011;42245;42.058;24.700;2024-02-21T17:17:23;10.27;;;5.45;;
56343;SDS011;42245;42.058;24.700;2024-02-21T17:19:48;6.95;;;5.10;;
56343;SDS011;42245;42.058;24.700;2024-02-21T17:22:14;8.30;;;5.28;;
56343;SDS011;42245;42.058;24.700;2024-02-21T17:24:39;8.43;;;5.82;;
56343;SDS011;42245;42.058;24.700;2024-02-21T17:27:05;10.57;;;6.47;;
56343;SDS011;42245;42.058;24.700;2024-02-21T17:29:30;14.15;;;9.23;;
56343;SDS011;42245;42.058;24.700;2024-02-21T17:31:56;15.25;;;9.60;;
56343;SDS011;42245;42.058;24.700;2024-02-21T17:34:22;20.85;;;9.32;;
56343;SDS011;42245;42.058;24.700;2024-02-21T17:36:47;16.83;;;9.60;;
56343;SDS011;42245;42.058;24.700;2024-02-21T17:39:13;11.95;;;8.25;;
56343;SDS011;42245;42.058;24.700;2024-02-21T17:41:39;14.43;;;9.07;;
56343;SDS011;42245;42.058;24.700;2024-02-21T17:44:05;15.13;;;9.05;;
56343;SDS011;42245;42.058;24.700;2024-02-21T17:46:30;14.50;;;9.68;;
56343;SDS011;42245;42.058;24.700;2024-02-21T17:48:55;10.55;;;8.02;;
56343;SDS011;42245;42.058;24.700;2024-02-21T17:51:21;13.32;;;7.75;;
56343;SDS011;42245;42.058;24.700;2024-02-21T17:53:46;16.92;;;8.30;;
56343;SDS011;42245;42.058;24.700;2024-02-21T17:56:12;12.63;;;8.30;;
56343;SDS011;42245;42.058;24.700;2024-02-21T17:58:37;11.38;;;7.72;;
56343;SDS011;42245;42.058;24.700;2024-02-21T18:01:03;12.02;;;7.63;;
56343;SDS011;42245;42.058;24.700;2024-02-21T18:03:28;11.82;;;7.85;;
56343;SDS011;42245;42.058;24.700;2024-02-21T18:05:58;13.63;;;7.70;;
56343;SDS011;42245;42.058;24.700;2024-02-21T18:08:27;10.07;;;7.40;;
56343;SDS011;42245;42.058;24.700;2024-02-21T18:10:54;9.60;;;6.90;;
56343;SDS011;42245;42.058;24.700;2024-02-21T18:13:19;10.10;;;7.30;;
56343;SDS011;42245;42.058;24.700;2024-02-21T18:15:46;9.60;;;7.03;;
56343;SDS011;42245;42.058;24.700;2024-02-21T18:18:12;11.18;;;7.43;;
56343;SDS011;42245;42.058;24.700;2024-02-21T18:20:37;11.10;;;7.38;;
56343;SDS011;42245;42.058;24.700;2024-02-21T18:23:03;11.52;;;7.75;;
56343;SDS011;42245;42.058;24.700;2024-02-21T18:25:28;11.43;;;7.40;;
56343;SDS011;42245;42.058;24.700;2024-02-21T18:27:54;12.25;;;7.45;;
56343;SDS011;42245;42.058;24.700;2024-02-21T18:30:20;11.27;;;7.47;;
56343;SDS011;42245;42.058;24.700;2024-02-21T18:32:47;10.80;;;7.38;;
56343;SDS011;42245;42.058;24.700;2024-02-21T18:35:14;11.60;;;6.93;;
56343;SDS011;42245;42.058;24.700;2024-02-21T18:37:40;11.20;;;6.75;;
56343;SDS011;42245;42.058;24.700;2024-02-21T18:40:06;12.65;;;7.32;;
56343;SDS011;42245;42.058;24.700;2024-02-21T18:42:36;9.50;;;6.80;;
56343;SDS011;42245;42.058;24.700;2024-02-21T18:45:02;11.65;;;7.20;;
56343;SDS011;42245;42.058;24.700;2024-02-21T18:47:30;13.20;;;8.20;;
56343;SDS011;42245;42.058;24.700;2024-02-21T18:49:56;11.18;;;7.95;;
56343;SDS011;42245;42.058;24.700;2024-02-21T18:52:21;12.80;;;8.27;;